Time;durP1;ratioP1;P1;durP2;ratioP2;P2;SDS_P1;SDS_P2;PMS_P1;PMS_P2;Temp;Humidity;BMP_temperature;BMP_pressure;BME280_temperature;BME280_humidity;BME280_pressure;Samples;Min_cycle;Max_cycle;Signal;HPM_P1;HPM_P2
2023/02/01 06:13:08;;;;;;;;;;;;;;;5.56;73.63;100388.16;1087448;54;19927;-85
2023/02/01 06:15:46;;;;;;;;;;;;;;;5.57;73.78;100387.22;1087674;54;19976;-83
2023/02/01 06:18:30;;;;;;;;;;;;;;;5.56;73.63;100378.41;1076136;54;19942;-84
2023/02/01 06:19:31;;;;;;;;;;;;;;;5.54;73.94;100371.50;1088304;54;20564;-84
2023/02/01 06:20:42;;;;;;;;;;;;;;;5.59;74.03;100358.75;1088409;54;19934;-84
2023/02/01 06:21:44;;;;;;;;;;;;;;;5.53;74.12;100372.44;1088482;54;19931;-83
2023/02/01 06:23:02;;;;;;;;;;;;;;;5.52;74.39;100373.41;1088531;54;19934;-85
2023/02/01 06:24:07;;;;;;;;;;;;;;;5.51;74.50;100369.06;1088580;54;19935;-84
2023/02/01 06:25:20;;;;;;;;;;;;;;;5.55;74.44;100374.03;1088543;54;19950;-84
2023/02/01 06:29:46;;;;;;;;;;;;;;;5.53;75.73;100372.44;1087681;47;19962;-82
2023/02/01 07:32:17;;;;;;;;;;;;;;;5.54;75.42;100464.31;1087034;54;19927;-82
2023/02/01 07:33:23;;;;;;;;;;;;;;;5.56;75.44;100463.28;1088717;54;19950;-83
2023/02/01 08:01:58;;;;;;;;;;;;;;;5.38;74.53;100424.72;1093645;39;20264;-80
2023/02/01 08:03:00;;;;;;;;;;;;;;;5.39;74.85;100429.06;1088036;54;19943;-79
2023/02/01 08:04:09;;;;;;;;;;;;;;;5.33;75.13;100435.63;1088102;54;19949;-81
2023/02/01 08:05:15;;;;;;;;;;;;;;;5.40;74.89;100428.97;1088192;46;20226;-79
2023/02/01 08:06:16;;;;;;;;;;;;;;;5.34;75.26;100428.53;1088578;46;19973;-80
2023/02/01 08:07:22;;;;;;;;;;;;;;;5.37;75.65;100423.88;1088059;54;19935;-81
2023/02/01 08:08:27;;;;;;;;;;;;;;;5.36;75.92;100421.31;1088142;54;19966;-82
2023/02/01 08:09:31;;;;;;;;;;;;;;;5.46;75.48;100423.25;1089074;46;19949;-81
2023/02/01 08:10:32;;;;;;;;;;;;;;;5.41;75.67;100422.72;1089933;46;19970;-81
2023/02/01 08:11:37;;;;;;;;;;;;;;;5.36;76.34;100429.25;1088419;46;19942;-82
2023/02/01 08:12:38;;;;;;;;;;;;;;;5.33;76.43;100440.94;1088679;46;20002;-80
2023/02/01 08:13:52;;;;;;;;;;;;;;;5.39;76.27;100440.50;1090914;46;19943;-80
2023/02/01 08:14:56;;;;;;;;;;;;;;;5.52;75.99;100442.34;1089908;46;19988;-81
2023/02/01 08:16:04;;;;;;;;;;;;;;;5.49;75.82;100447.84;1088119;54;19947;-80
2023/02/01 08:17:07;;;;;;;;;;;;;;;5.39;76.14;100443.16;1088728;46;19943;-79
2023/02/01 08:18:09;;;;;;;;;;;;;;;5.42;76.28;100453.56;1087993;54;19966;-80
2023/02/01 08:19:13;;;;;;;;;;;;;;;5.45;76.30;100449.88;1087763;54;19986;-80
2023/02/01 08:20:14;;;;;;;;;;;;;;;5.37;76.43;100462.78;1087855;54;19950;-79
2023/02/01 08:21:19;;;;;;;;;;;;;;;5.45;76.19;100456.03;1088409;46;20006;-80
2023/02/01 08:22:20;;;;;;;;;;;;;;;5.53;76.19;100462.63;1090129;39;20300;-79
2023/02/01 08:23:25;;;;;;;;;;;;;;;5.48;76.16;100465.59;1087866;54;19939;-80
2023/02/01 08:24:28;;;;;;;;;;;;;;;5.59;75.73;100468.38;1087866;54;19945;-80
2023/02/01 08:25:31;;;;;;;;;;;;;;;5.53;75.91;100465.28;1087604;54;19946;-80
2023/02/01 08:26:35;;;;;;;;;;;;;;;5.55;75.95;100463.38;1087816;54;19981;-79
2023/02/01 08:27:37;;;;;;;;;;;;;;;5.54;75.76;100457.22;1088321;46;19966;-80
2023/02/01 08:28:41;;;;;;;;;;;;;;;5.54;75.47;100462.50;1089870;46;19946;-79
2023/02/01 08:29:45;;;;;;;;;;;;;;;5.58;75.64;100463.16;1088802;46;19950;-80
2023/02/01 08:30:46;;;;;;;;;;;;;;;5.69;75.35;100481.88;1087887;54;19965;-79
2023/02/01 08:31:54;;;;;;;;;;;;;;;5.70;75.13;100465.00;1087790;54;19949;-79
2023/02/01 08:32:55;;;;;;;;;;;;;;;5.65;75.32;100476.88;1087898;54;19954;-79
2023/02/01 08:33:59;;;;;;;;;;;;;;;5.65;75.19;100480.38;1087823;54;19945;-80
2023/02/01 08:35:00;;;;;;;;;;;;;;;5.74;75.11;100477.13;1087807;54;20418;-78
2023/02/01 08:36:04;;;;;;;;;;;;;;;5.75;74.72;100476.16;1087875;54;19939;-80
2023/02/01 08:37:08;;;;;;;;;;;;;;;5.83;74.46;100477.44;1087795;54;19946;-80
2023/02/01 08:38:09;;;;;;;;;;;;;;;5.83;74.46;100475.63;1088455;46;19939;-79
2023/02/01 08:39:14;;;;;;;;;;;;;;;5.93;74.48;100483.84;1090025;46;19951;-79
2023/02/01 08:40:15;;;;;;;;;;;;;;;5.81;74.30;100474.88;1089673;46;19994;-80
2023/02/01 08:41:20;;;;;;;;;;;;;;;5.81;75.03;100484.66;1087927;54;19990;-79
2023/02/01 08:43:40;;;;;;;;;;;;;;;5.87;75.14;100494.84;1087788;54;19939;-79
2023/02/01 08:44:42;;;;;;;;;;;;;;;5.96;75.08;100486.25;1087823;47;19946;-79
2023/02/01 08:45:46;;;;;;;;;;;;;;;5.94;75.25;100481.06;1087801;54;19943;-79
2023/02/01 08:46:52;;;;;;;;;;;;;;;5.92;75.53;100480.31;1087855;54;19943;-79
2023/02/01 08:47:53;;;;;;;;;;;;;;;5.91;75.13;100478.59;1087721;54;20003;-80
2023/02/01 08:48:57;;;;;;;;;;;;;;;5.87;75.17;100481.56;1087894;54;19942;-79
2023/02/01 08:49:58;;;;;;;;;;;;;;;5.93;75.07;100484.66;1087732;54;19966;-79
2023/02/01 08:51:04;;;;;;;;;;;;;;;5.97;74.91;100487.13;1090284;39;20475;-79
2023/02/01 08:52:07;;;;;;;;;;;;;;;5.79;74.98;100503.34;1087892;54;19995;-80
2023/02/01 08:53:13;;;;;;;;;;;;;;;5.75;75.11;100488.56;1087762;54;19950;-79
2023/02/01 08:54:17;;;;;;;;;;;;;;;5.80;75.08;100496.22;1087791;54;19994;-78
2023/02/01 08:55:20;;;;;;;;;;;;;;;5.89;75.00;100484.97;1087712;54;19949;-79
2023/02/01 08:56:24;;;;;;;;;;;;;;;5.99;74.43;100483.44;1087745;54;19967;-79
2023/02/01 08:57:25;;;;;;;;;;;;;;;5.99;74.58;100486.09;1087707;54;19971;-79
2023/02/01 09:05:35;;;;;;;;;;;;;;;6.07;73.19;100478.44;1087149;54;19949;-79
2023/02/01 09:09:13;;;;;;;;;;;;;;;6.16;72.94;100484.94;1087807;54;20520;-79
2023/02/01 09:10:14;;;;;;;;;;;;;;;6.13;72.79;100473.69;1088916;46;19943;-79
2023/02/01 09:11:19;;;;;;;;;;;;;;;6.19;72.87;100483.88;1087816;54;19950;-79
2023/02/01 09:12:20;;;;;;;;;;;;;;;6.26;72.67;100482.50;1087668;54;19942;-80
2023/02/01 09:13:28;;;;;;;;;;;;;;;6.11;72.71;100471.13;1087851;54;19949;-80
2023/02/01 09:14:29;;;;;;;;;;;;;;;6.11;72.73;100486.22;1087904;54;19946;-81
2023/02/01 09:15:35;;;;;;;;;;;;;;;6.26;72.46;100479.84;1087964;54;20674;-81
2023/02/01 09:16:36;;;;;;;;;;;;;;;6.18;72.56;100484.81;1088112;54;19949;-81
2023/02/01 09:17:42;;;;;;;;;;;;;;;6.25;72.34;100483.44;1087994;54;19954;-80
2023/02/01 09:18:44;;;;;;;;;;;;;;;6.30;71.63;100480.47;1087983;54;19942;-81
2023/02/01 09:19:50;;;;;;;;;;;;;;;6.31;71.63;100483.03;1087877;54;19950;-80
2023/02/01 09:20:57;;;;;;;;;;;;;;;6.27;70.98;100486.00;1087936;54;19943;-81
2023/02/01 09:21:58;;;;;;;;;;;;;;;6.32;71.13;100482.09;1087988;46;19943;-79
2023/02/01 09:23:02;;;;;;;;;;;;;;;6.36;70.97;100488.88;1087691;54;19939;-80
2023/02/01 09:24:03;;;;;;;;;;;;;;;6.27;70.77;100486.84;1089020;46;19978;-82
2023/02/01 09:25:08;;;;;;;;;;;;;;;6.26;70.38;100490.47;1087645;54;19942;-80
2023/02/01 09:26:38;;;;;;;;;;;;;;;6.30;70.63;100491.09;1088616;47;19939;-82
2023/02/01 09:27:41;;;;;;;;;;;;;;;6.31;70.50;100488.34;1088420;54;19951;-82
2023/02/01 09:35:16;;;;;;;;;;;;;;;6.48;70.33;100494.28;1087887;54;19962;-82
2023/02/01 09:37:41;;;;;;;;;;;;;;;6.51;70.09;100496.72;1087882;54;19938;-83
2023/02/01 09:39:07;;;;;;;;;;;;;;;6.57;70.31;100501.59;1088298;39;20684;-82
2023/02/01 09:43:24;;;;;;;;;;;;;;;6.45;70.36;100502.44;1087858;54;19931;-81
2023/02/01 09:44:33;;;;;;;;;;;;;;;6.48;70.48;100487.16;1093145;31;20737;-82
2023/02/01 09:45:46;;;;;;;;;;;;;;;6.46;70.36;100497.06;1088113;54;19943;-82
2023/02/01 09:48:14;;;;;;;;;;;;;;;6.57;70.09;100504.25;1088224;54;19930;-82
2023/02/01 09:49:21;;;;;;;;;;;;;;;6.44;70.47;100503.41;1094843;46;19947;-85
2023/02/01 09:50:30;;;;;;;;;;;;;;;6.52;70.17;100503.72;1088331;54;19977;-83
2023/02/01 09:51:49;;;;;;;;;;;;;;;6.53;70.20;100513.38;1088200;54;19941;-82
2023/02/01 09:53:31;;;;;;;;;;;;;;;6.62;70.15;100507.44;1095153;39;20646;-82
2023/02/01 09:58:26;;;;;;;;;;;;;;;6.52;69.72;100525.84;1088194;54;19999;-82
2023/02/01 10:01:32;;;;;;;;;;;;;;;6.36;69.87;100520.72;1087933;54;19964;-84
2023/02/01 10:02:38;;;;;;;;;;;;;;;6.47;69.87;100527.13;1092288;46;19943;-84
2023/02/01 10:05:26;;;;;;;;;;;;;;;6.60;69.60;100527.09;1088554;54;19919;-83
2023/02/01 10:06:43;;;;;;;;;;;;;;;6.47;70.45;100519.13;1088505;54;19950;-82
2023/02/01 10:07:54;;;;;;;;;;;;;;;6.65;69.92;100517.84;1088413;54;19943;-85
2023/02/01 10:22:47;;;;;;;;;;;;;;;6.54;68.13;100557.59;1088566;46;19942;-80
2023/02/01 10:24:05;;;;;;;;;;;;;;;6.54;68.10;100552.28;1088681;46;19962;-80
2023/02/01 10:25:15;;;;;;;;;;;;;;;6.62;67.76;100565.88;1089193;46;19943;-80
2023/02/01 10:26:21;;;;;;;;;;;;;;;6.66;67.97;100550.59;1087350;54;19943;-81
2023/02/01 10:27:32;;;;;;;;;;;;;;;6.61;67.60;100558.03;1087503;54;19943;-80
2023/02/01 10:28:38;;;;;;;;;;;;;;;6.54;67.45;100557.59;1088540;46;20024;-80
2023/02/01 10:29:41;;;;;;;;;;;;;;;6.52;67.50;100549.75;1087536;54;19927;-80
2023/02/01 10:30:47;;;;;;;;;;;;;;;6.52;67.71;100568.34;1087528;54;19954;-79
2023/02/01 10:31:48;;;;;;;;;;;;;;;6.49;67.90;100567.72;1090341;46;19938;-80
2023/02/01 10:32:54;;;;;;;;;;;;;;;6.53;67.58;100566.53;1087567;54;20024;-80
2023/02/01 10:33:59;;;;;;;;;;;;;;;6.54;67.79;100565.56;1087519;54;19934;-80
2023/02/01 10:35:04;;;;;;;;;;;;;;;6.62;67.87;100565.88;1089132;46;19942;-80
2023/02/01 10:36:21;;;;;;;;;;;;;;;6.54;67.84;100552.28;1088540;46;19954;-80
2023/02/01 10:37:31;;;;;;;;;;;;;;;6.49;68.12;100555.25;1087735;54;19962;-78
2023/02/01 10:38:35;;;;;;;;;;;;;;;6.61;67.96;100555.38;1088137;46;20003;-79
2023/02/01 10:39:39;;;;;;;;;;;;;;;6.63;67.89;100556.13;1087700;54;19939;-81
2023/02/01 10:40:41;;;;;;;;;;;;;;;6.66;67.86;100561.22;1087591;54;19943;-80
2023/02/01 10:41:45;;;;;;;;;;;;;;;6.58;68.01;100548.47;1087614;54;19947;-81
2023/02/01 10:42:49;;;;;;;;;;;;;;;6.62;68.33;100559.72;1088642;46;19990;-80
2023/02/01 10:44:13;;;;;;;;;;;;;;;6.77;67.92;100552.50;1087614;54;19939;-79
2023/02/01 10:45:20;;;;;;;;;;;;;;;6.73;68.16;100541.25;1089719;46;19939;-79
2023/02/01 10:46:22;;;;;;;;;;;;;;;6.69;68.27;100559.22;1089390;47;19938;-79
2023/02/01 10:47:26;;;;;;;;;;;;;;;6.75;68.03;100551.75;1087623;54;19950;-79
2023/02/01 10:48:31;;;;;;;;;;;;;;;6.65;68.07;100547.06;1088229;54;19973;-80
2023/02/01 10:49:39;;;;;;;;;;;;;;;6.65;67.97;100555.06;1088366;54;19934;-79
2023/02/01 10:50:48;;;;;;;;;;;;;;;6.60;67.47;100538.59;1088542;54;19966;-80
2023/02/01 10:51:52;;;;;;;;;;;;;;;6.56;67.60;100537.09;1089031;46;19950;-80
2023/02/01 10:53:02;;;;;;;;;;;;;;;6.59;67.50;100544.88;1088345;54;19938;-79
2023/02/01 10:54:13;;;;;;;;;;;;;;;6.66;67.27;100543.47;1090444;46;19949;-80
2023/02/01 10:55:28;;;;;;;;;;;;;;;6.72;67.11;100540.38;1088513;54;19946;-80
2023/02/01 10:56:32;;;;;;;;;;;;;;;6.75;67.32;100527.84;1088454;54;19943;-80
2023/02/01 10:57:33;;;;;;;;;;;;;;;6.71;66.70;100529.88;1090370;46;19943;-80
2023/02/01 10:58:40;;;;;;;;;;;;;;;6.67;66.50;100526.56;1088419;54;19943;-81
2023/02/01 10:59:44;;;;;;;;;;;;;;;6.65;66.39;100517.84;1088504;54;19966;-81
2023/02/01 11:00:49;;;;;;;;;;;;;;;6.75;66.29;100522.53;1088707;46;19939;-81
2023/02/01 11:02:00;;;;;;;;;;;;;;;6.78;66.50;100511.69;1089486;46;19949;-80
2023/02/01 11:03:21;;;;;;;;;;;;;;;6.68;66.02;100511.47;1088448;54;19942;-80
2023/02/01 11:04:27;;;;;;;;;;;;;;;6.75;65.74;100511.88;1089694;39;20168;-81
2023/02/01 11:05:45;;;;;;;;;;;;;;;6.85;65.81;100508.47;1088699;54;19935;-79
2023/02/01 11:06:50;;;;;;;;;;;;;;;6.76;65.49;100514.44;1089357;46;19966;-80
2023/02/01 11:07:54;;;;;;;;;;;;;;;6.84;65.38;100513.88;1088358;54;19943;-80
2023/02/01 11:08:59;;;;;;;;;;;;;;;6.86;65.65;100504.00;1088600;46;19990;-80
2023/02/01 11:10:04;;;;;;;;;;;;;;;6.86;65.64;100509.31;1088668;46;19927;-80
2023/02/01 11:11:10;;;;;;;;;;;;;;;6.79;65.30;100502.75;1088471;54;20693;-80
2023/02/01 11:12:28;;;;;;;;;;;;;;;6.81;65.77;100511.44;1089304;39;20590;-80
2023/02/01 11:13:36;;;;;;;;;;;;;;;6.71;65.48;100501.47;1088479;54;19978;-80
2023/02/01 11:14:41;;;;;;;;;;;;;;;6.81;65.18;100506.13;1091877;46;20236;-80
2023/02/01 11:15:46;;;;;;;;;;;;;;;6.78;65.04;100506.38;1091434;39;20581;-80
2023/02/01 11:16:51;;;;;;;;;;;;;;;6.79;65.36;100502.75;1088574;54;19946;-79
2023/02/01 11:17:56;;;;;;;;;;;;;;;6.81;65.42;100508.78;1088532;54;20839;-80
2023/02/01 11:19:01;;;;;;;;;;;;;;;6.75;65.36;100496.81;1088598;54;19949;-84
2023/02/01 11:20:29;;;;;;;;;;;;;;;6.79;65.22;100495.63;1088793;54;19982;-82
2023/02/01 11:21:34;;;;;;;;;;;;;;;6.78;65.52;100491.25;1088225;54;19939;-82
2023/02/01 11:22:56;;;;;;;;;;;;;;;6.78;65.18;100491.25;1088487;54;19942;-82
2023/02/01 11:24:04;;;;;;;;;;;;;;;6.70;65.10;100489.16;1089195;39;20571;-81
2023/02/01 11:25:10;;;;;;;;;;;;;;;6.67;64.64;100484.06;1088723;54;19938;-81
2023/02/01 11:26:23;;;;;;;;;;;;;;;6.67;64.75;100477.88;1088657;54;19973;-80
2023/02/01 11:27:25;;;;;;;;;;;;;;;6.74;64.40;100484.47;1089221;46;20019;-80
2023/02/01 11:28:35;;;;;;;;;;;;;;;6.81;64.36;100490.19;1088619;54;19966;-80
2023/02/01 11:29:41;;;;;;;;;;;;;;;6.85;64.21;100481.03;1088606;54;19943;-80
2023/02/01 11:30:47;;;;;;;;;;;;;;;6.74;64.48;100478.31;1089335;46;19938;-83
2023/02/01 11:31:52;;;;;;;;;;;;;;;6.85;64.35;100481.88;1089590;46;19991;-82
2023/02/01 11:35:53;;;;;;;;;;;;;;;6.70;64.25;100477.66;1088885;46;19942;-80
2023/02/01 11:37:03;;;;;;;;;;;;;;;6.77;64.57;100467.47;1089185;46;19950;-81
2023/02/01 11:38:11;;;;;;;;;;;;;;;6.79;64.53;100469.03;1089491;46;19950;-81
2023/02/01 11:39:25;;;;;;;;;;;;;;;6.64;64.37;100470.16;1088764;54;19946;-82
2023/02/01 11:40:34;;;;;;;;;;;;;;;6.68;64.21;100469.81;1089325;46;19951;-81
2023/02/01 11:41:43;;;;;;;;;;;;;;;6.71;64.46;100466.94;1088537;54;19966;-80
2023/02/01 11:42:56;;;;;;;;;;;;;;;6.83;63.96;100464.34;1088789;46;19931;-80
2023/02/01 11:45:42;;;;;;;;;;;;;;;6.87;64.02;100463.19;1088460;54;19994;-80
2023/02/01 11:46:57;;;;;;;;;;;;;;;6.88;63.79;100454.25;1088514;54;19986;-80
2023/02/01 11:50:06;;;;;;;;;;;;;;;6.86;64.28;100458.81;1088255;54;19926;-82
2023/02/01 11:51:22;;;;;;;;;;;;;;;6.69;64.37;100463.56;1090637;46;19943;-81
2023/02/01 11:52:36;;;;;;;;;;;;;;;6.70;64.34;100462.59;1088320;54;19927;-81
2023/02/01 15:20:50;;;;;;;;;;;;;;;6.68;63.60;100400.75;970228;54;50715;-82
2023/02/01 18:12:24;;;;;;;;;;;;;;;6.70;62.71;100408.59;1087262;54;19946;-83
2023/02/01 18:16:27;;;;;;;;;;;;;;;6.48;63.02;100426.06;1088247;54;19930;-84
2023/02/01 18:20:01;;;;;;;;;;;;;;;6.60;62.49;100419.03;1087967;54;19939;-85
2023/02/01 18:21:05;;;;;;;;;;;;;;;6.60;62.39;100424.34;1088572;54;19942;-83
2023/02/01 18:22:17;;;;;;;;;;;;;;;6.52;62.81;100418.72;1095008;46;19969;-83
2023/02/01 18:23:30;;;;;;;;;;;;;;;6.57;62.67;100419.25;1088416;54;19966;-81
2023/02/01 18:34:24;;;;;;;;;;;;;;;6.46;62.59;100405.88;1087982;54;19942;-83
2023/02/01 18:35:31;;;;;;;;;;;;;;;6.47;62.77;100411.06;1088262;54;19927;-84
2023/02/01 18:36:37;;;;;;;;;;;;;;;6.49;62.59;100400.38;1088248;54;19926;-83
2023/02/01 18:37:41;;;;;;;;;;;;;;;6.52;62.22;100406.31;1088266;54;19951;-83
2023/02/01 18:38:46;;;;;;;;;;;;;;;6.43;62.10;100406.97;1088304;54;19945;-84
2023/02/01 18:39:48;;;;;;;;;;;;;;;6.45;62.01;100391.78;1093616;46;19958;-84
2023/02/01 18:41:53;;;;;;;;;;;;;;;6.49;62.17;100406.50;1090740;46;19927;-83
2023/02/01 22:20:54;;;;;;;;;;;;;;;6.63;64.76;100434.75;1087666;54;19931;-81
2023/02/01 22:22:11;;;;;;;;;;;;;;;6.65;64.52;100424.88;1088550;46;19927;-82
2023/02/01 22:23:26;;;;;;;;;;;;;;;6.74;64.37;100430.47;1088860;46;20020;-83
2023/02/01 22:24:53;;;;;;;;;;;;;;;6.64;64.70;100427.63;1088049;54;19946;-83
2023/02/01 22:26:01;;;;;;;;;;;;;;;6.79;64.33;100429.19;1089018;46;19926;-84
2023/02/01 22:27:40;;;;;;;;;;;;;;;6.75;64.51;100432.16;1090104;46;19942;-84
2023/02/01 22:28:48;;;;;;;;;;;;;;;6.70;64.90;100419.22;1087854;46;19943;-84
2023/02/01 22:31:31;;;;;;;;;;;;;;;6.81;64.56;100418.44;1088297;46;19973;-81
2023/02/01 22:32:32;;;;;;;;;;;;;;;6.67;64.91;100420.28;1088182;54;19938;-82
2023/02/01 23:03:00;;;;;;;;;;;;;;;6.57;68.58;100451.13;1087250;54;19950;-79
2023/02/01 23:04:04;;;;;;;;;;;;;;;6.49;68.98;100459.63;1087766;54;19942;-79
2023/02/01 23:05:08;;;;;;;;;;;;;;;6.43;68.95;100464.53;1087739;54;19927;-79
2023/02/01 23:06:09;;;;;;;;;;;;;;;6.37;69.34;100461.34;1087774;54;19938;-80
2023/02/01 23:07:14;;;;;;;;;;;;;;;6.30;70.05;100464.53;1087923;54;19934;-81
2023/02/01 23:08:16;;;;;;;;;;;;;;;6.32;70.38;100454.66;1087810;54;19942;-79
2023/02/01 23:09:49;;;;;;;;;;;;;;;6.28;70.19;100458.50;1088079;46;19945;-80
2023/02/01 23:11:17;;;;;;;;;;;;;;;6.38;70.52;100463.06;1087744;54;19943;-80
2023/02/01 23:23:25;;;;;;;;;;;;;;;6.32;70.74;100462.63;1088288;54;19919;-81
2023/02/01 23:24:37;;;;;;;;;;;;;;;6.24;71.06;100452.53;1088178;54;19949;-82
2023/02/01 23:25:40;;;;;;;;;;;;;;;6.31;70.94;100472.41;1125446;39;20630;-86
